Time;durP1;ratioP1;P1;durP2;ratioP2;P2;SDS_P1;SDS_P2;PMS_P1;PMS_P2;Temp;Humidity;BMP_temperature;BMP_pressure;BME280_temperature;BME280_humidity;BME280_pressure;Samples;Min_cycle;Max_cycle;Signal;HPM_P1;HPM_P2
2021/07/27 00:02:03;;;;;;;6.23;5.40;;;20.60;99.90;;;;;;5075871;28;20671;-62
2021/07/27 00:04:30;;;;;;;6.43;5.93;;;20.40;99.90;;;;;;5081063;28;20440;-61
2021/07/27 00:06:57;;;;;;;10.50;6.87;;;20.20;99.90;;;;;;5077900;28;20448;-62
2021/07/27 00:09:24;;;;;;;7.90;6.30;;;20.10;99.90;;;;;;5076776;28;20490;-62
2021/07/27 00:11:51;;;;;;;6.80;6.10;;;19.90;99.90;;;;;;5076220;28;20440;-62
2021/07/27 00:14:18;;;;;;;7.07;6.37;;;19.80;99.90;;;;;;5077012;28;20495;-62
2021/07/27 00:16:48;;;;;;;6.80;6.10;;;19.90;99.90;;;;;;5081026;28;20453;-62
2021/07/27 00:19:15;;;;;;;8.43;7.37;;;20.00;99.90;;;;;;5080831;28;21002;-62
2021/07/27 00:21:42;;;;;;;8.40;7.60;;;20.00;99.90;;;;;;5081373;28;20426;-62
2021/07/27 00:24:10;;;;;;;9.13;7.47;;;19.80;99.90;;;;;;5074543;28;20437;-61
2021/07/27 00:26:37;;;;;;;8.23;6.73;;;20.00;99.90;;;;;;5073354;28;20410;-62
2021/07/27 00:29:04;;;;;;;8.57;7.87;;;20.00;99.90;;;;;;5080209;28;20454;-62
2021/07/27 00:31:31;;;;;;;7.80;7.10;;;20.00;99.90;;;;;;5080961;28;20431;-61
2021/07/27 00:33:58;;;;;;;7.87;7.03;;;19.90;99.90;;;;;;5080254;28;20482;-62
2021/07/27 00:36:25;;;;;;;8.20;7.47;;;20.10;99.90;;;;;;5080320;28;20414;-61
2021/07/27 00:38:52;;;;;;;8.13;7.33;;;20.10;99.90;;;;;;5080427;28;20448;-61
2021/07/27 00:41:19;;;;;;;8.17;7.37;;;20.20;99.90;;;;;;5073301;28;20419;-61
2021/07/27 00:43:46;;;;;;;8.43;7.57;;;20.00;99.90;;;;;;5078932;28;20464;-62
2021/07/27 00:46:13;;;;;;;8.10;7.30;;;19.90;99.90;;;;;;5080207;28;21008;-62
2021/07/27 00:48:40;;;;;;;8.20;7.47;;;19.80;99.90;;;;;;5070872;28;20954;-61
2021/07/27 00:51:07;;;;;;;7.70;7.07;;;19.80;99.90;;;;;;5080048;28;20516;-63
2021/07/27 00:53:35;;;;;;;12.70;6.80;;;20.00;99.90;;;;;;5079767;28;20450;-61
2021/07/27 00:56:05;;;;;;;10.07;6.80;;;20.20;99.90;;;;;;5080212;28;20447;-61
2021/07/27 00:58:32;;;;;;;7.60;6.93;;;20.00;99.90;;;;;;5074849;28;20496;-62
2021/07/27 01:00:59;;;;;;;9.00;6.23;;;19.90;99.90;;;;;;5079974;28;20790;-61
2021/07/27 01:03:26;;;;;;;7.20;6.57;;;19.70;99.90;;;;;;5080526;28;20463;-62
2021/07/27 01:05:53;;;;;;;7.30;6.70;;;19.70;99.90;;;;;;5079069;28;20717;-62
2021/07/27 01:08:20;;;;;;;7.30;6.40;;;19.60;99.90;;;;;;5080306;28;20439;-62
2021/07/27 01:10:47;;;;;;;8.13;6.40;;;19.70;99.90;;;;;;5079819;28;20462;-62
2021/07/27 01:13:14;;;;;;;6.40;5.90;;;19.70;99.90;;;;;;5079825;28;21043;-63
2021/07/27 01:15:42;;;;;;;8.67;5.60;;;19.90;99.90;;;;;;5078944;28;20432;-61
2021/07/27 01:18:14;;;;;;;11.03;6.93;;;20.10;99.90;;;;;;5062759;28;20426;-61
2021/07/27 01:37:29;;;;;;;7.73;6.83;;;20.20;99.90;;;;;;5071931;28;20418;-63
2021/07/27 01:37:57;;;;;;;6.80;6.20;;;19.50;99.90;;;;;;5082763;28;20406;-63
2021/07/27 01:40:25;;;;;;;6.17;5.50;;;19.60;99.90;;;;;;5085059;28;20770;-63
2021/07/27 01:42:53;;;;;;;6.30;5.70;;;19.70;99.90;;;;;;5078794;28;20760;-62
2021/07/27 01:45:20;;;;;;;8.17;7.30;;;19.80;99.90;;;;;;5079544;28;20421;-63
2021/07/27 01:47:47;;;;;;;7.50;6.60;;;19.90;99.90;;;;;;5079027;28;20959;-61
2021/07/27 01:50:15;;;;;;;8.07;7.07;;;20.00;99.90;;;;;;5078980;28;20507;-61
2021/07/27 01:52:46;;;;;;;7.83;7.03;;;19.90;99.90;;;;;;5090979;28;20415;-63
2021/07/27 01:55:16;;;;;;;7.33;6.73;;;19.90;99.90;;;;;;5088222;28;20430;-61
2021/07/27 01:57:43;;;;;;;6.53;5.93;;;19.80;99.90;;;;;;5081564;28;20505;-61
2021/07/27 02:00:11;;;;;;;9.20;7.40;;;19.80;99.90;;;;;;5079168;28;21043;-62
2021/07/27 02:02:38;;;;;;;7.67;7.00;;;19.90;99.90;;;;;;5091586;28;20467;-61
2021/07/27 02:05:09;;;;;;;6.17;5.57;;;19.80;99.90;;;;;;5065761;28;20595;-62
2021/07/27 02:07:37;;;;;;;10.57;7.00;;;19.90;99.90;;;;;;5092325;28;20420;-62
2021/07/27 02:10:07;;;;;;;10.93;6.50;;;19.90;99.90;;;;;;5064370;28;20508;-63
2021/07/27 02:12:37;;;;;;;7.60;6.80;;;19.90;99.90;;;;;;5078983;28;20469;-61
2021/07/27 02:15:05;;;;;;;8.00;6.73;;;19.90;99.90;;;;;;5079293;28;20482;-62
2021/07/27 02:17:33;;;;;;;8.40;7.07;;;19.80;99.90;;;;;;5078845;28;20718;-61
2021/07/27 02:20:03;;;;;;;8.30;6.63;;;19.70;99.90;;;;;;5078516;28;20604;-62
2021/07/27 02:22:34;;;;;;;9.77;6.53;;;19.50;99.90;;;;;;5078740;28;20456;-61
2021/07/27 02:25:01;;;;;;;8.80;8.00;;;19.60;99.90;;;;;;5078556;28;20440;-61
2021/07/27 02:27:28;;;;;;;8.17;7.37;;;19.50;99.90;;;;;;5078765;28;20435;-61
2021/07/27 02:30:03;;;;;;;8.70;7.80;;;19.50;99.90;;;;;;5078375;28;20645;-61
2021/07/27 02:32:30;;;;;;;7.13;6.40;;;19.40;99.90;;;;;;5078105;28;20409;-61
2021/07/27 02:34:58;;;;;;;9.73;8.20;;;19.50;99.90;;;;;;5078552;28;20441;-62
2021/07/27 02:37:25;;;;;;;7.97;7.17;;;19.30;99.90;;;;;;5078249;28;20456;-61
2021/07/27 02:39:52;;;;;;;13.20;7.80;;;19.30;99.90;;;;;;5078534;28;20785;-61
2021/07/27 02:42:19;;;;;;;9.60;7.03;;;19.30;99.90;;;;;;5078569;28;20489;-62
2021/07/27 02:44:46;;;;;;;11.63;8.20;;;19.30;99.90;;;;;;5078354;28;20440;-61
2021/07/27 02:47:13;;;;;;;8.60;7.80;;;19.30;99.90;;;;;;5077855;28;20480;-61
2021/07/27 02:49:40;;;;;;;7.77;7.07;;;19.30;99.90;;;;;;5083552;28;20530;-62
2021/07/27 02:52:08;;;;;;;10.60;8.03;;;19.40;99.90;;;;;;5060140;28;20448;-61
2021/07/27 02:54:38;;;;;;;7.90;7.23;;;19.40;99.90;;;;;;5086630;28;20437;-61
2021/07/27 02:57:05;;;;;;;10.47;7.90;;;19.40;99.90;;;;;;5075825;28;20491;-61
2021/07/27 02:59:32;;;;;;;9.33;8.23;;;19.50;99.90;;;;;;5079275;28;20440;-62
2021/07/27 03:01:59;;;;;;;7.83;7.10;;;19.50;99.90;;;;;;5077679;28;20465;-62
2021/07/27 03:04:26;;;;;;;12.87;8.70;;;19.50;99.90;;;;;;5071032;28;20464;-61
2021/07/27 03:06:54;;;;;;;14.90;8.33;;;19.40;99.90;;;;;;5077678;28;20458;-61
2021/07/27 03:09:32;;;;;;;9.20;8.20;;;19.50;99.90;;;;;;5078114;28;20480;-61
2021/07/27 03:12:04;;;;;;;12.03;8.67;;;19.40;99.90;;;;;;5078425;28;20431;-61
2021/07/27 03:14:31;;;;;;;11.77;9.43;;;19.50;99.90;;;;;;5078333;28;20450;-61
2021/07/27 03:16:59;;;;;;;11.97;7.73;;;19.40;99.90;;;;;;5083355;28;20886;-61
2021/07/27 03:19:26;;;;;;;12.37;8.33;;;19.20;99.90;;;;;;5073434;28;20484;-61
2021/07/27 03:21:53;;;;;;;9.40;8.10;;;19.00;99.90;;;;;;5081686;28;20489;-62
2021/07/27 03:24:20;;;;;;;14.27;7.90;;;19.10;99.90;;;;;;5096069;28;20431;-63
2021/07/27 03:26:47;;;;;;;14.07;8.80;;;19.10;99.90;;;;;;5093774;28;20486;-63
2021/07/27 03:29:14;;;;;;;22.60;8.90;;;19.20;99.90;;;;;;5081042;28;20733;-61
2021/07/27 03:31:41;;;;;;;8.67;7.77;;;19.20;99.90;;;;;;5071827;28;20435;-62
2021/07/27 03:34:08;;;;;;;9.20;7.67;;;19.40;99.90;;;;;;5083056;28;21068;-61
2021/07/27 03:36:35;;;;;;;8.77;7.90;;;19.50;99.90;;;;;;5094115;28;20796;-61
2021/07/27 03:39:02;;;;;;;9.00;8.10;;;19.40;99.90;;;;;;5081808;28;20443;-62
2021/07/27 03:41:29;;;;;;;10.40;7.90;;;19.60;99.90;;;;;;5074300;28;20417;-62
2021/07/27 03:43:56;;;;;;;9.33;8.27;;;19.80;99.90;;;;;;5089667;28;20422;-62
2021/07/27 03:46:23;;;;;;;9.43;7.00;;;19.90;99.90;;;;;;5081112;28;20918;-62
2021/07/27 03:48:50;;;;;;;10.87;8.23;;;20.10;99.90;;;;;;5081628;28;20628;-62
2021/07/27 03:51:17;;;;;;;10.43;7.07;;;20.20;99.90;;;;;;5080701;28;20810;-62
2021/07/27 03:53:44;;;;;;;12.83;9.20;;;20.30;99.90;;;;;;5090932;28;20438;-63
2021/07/27 03:56:12;;;;;;;13.90;8.17;;;20.50;99.90;;;;;;5087210;28;20414;-62
2021/07/27 03:58:42;;;;;;;7.63;6.93;;;20.50;99.90;;;;;;5095491;28;20485;-62
2021/07/27 04:01:10;;;;;;;8.37;7.47;;;20.50;99.90;;;;;;5068027;28;20452;-61
2021/07/27 04:03:37;;;;;;;11.40;8.30;;;20.60;99.90;;;;;;5089236;28;20421;-62
2021/07/27 04:06:05;;;;;;;7.93;7.13;;;20.40;99.90;;;;;;5072603;28;20468;-64
2021/07/27 04:08:32;;;;;;;6.70;6.10;;;20.50;99.90;;;;;;5059693;28;20495;-62
2021/07/27 04:11:05;;;;;;;9.60;7.20;;;20.50;99.90;;;;;;5080752;28;20735;-61
2021/07/27 04:13:33;;;;;;;7.07;6.23;;;20.60;99.90;;;;;;5083638;28;20453;-62
2021/07/27 04:16:02;;;;;;;7.70;5.60;;;20.70;99.90;;;;;;5071392;28;20419;-63
2021/07/27 04:18:29;;;;;;;15.10;6.73;;;20.80;99.90;;;;;;5076491;28;20464;-63
2021/07/27 04:21:02;;;;;;;11.00;5.50;;;20.90;99.90;;;;;;5070303;28;20465;-63
2021/07/27 04:23:29;;;;;;;6.57;5.00;;;21.00;99.90;;;;;;5078965;28;20495;-62
2021/07/27 04:25:58;;;;;;;5.63;5.13;;;21.30;99.90;;;;;;5072196;28;20426;-62
2021/07/27 04:28:26;;;;;;;13.53;6.50;;;21.40;99.90;;;;;;5075236;28;20472;-62
2021/07/27 04:30:53;;;;;;;6.90;5.60;;;21.70;99.90;;;;;;5080839;28;20586;-62
2021/07/27 04:33:34;;;;;;;6.60;5.60;;;21.80;99.90;;;;;;5080873;28;20478;-63
2021/07/27 04:36:01;;;;;;;7.17;6.43;;;21.60;99.90;;;;;;5074944;28;20457;-64
2021/07/27 04:38:28;;;;;;;9.47;6.50;;;21.60;99.90;;;;;;5074899;28;20449;-62
2021/07/27 04:40:56;;;;;;;11.63;6.70;;;21.70;99.90;;;;;;5074172;28;20482;-62
2021/07/27 04:43:26;;;;;;;7.30;6.60;;;21.80;99.90;;;;;;5055615;28;20489;-62
2021/07/27 04:45:53;;;;;;;7.80;6.23;;;21.70;99.90;;;;;;5078459;28;20445;-62
2021/07/27 04:48:21;;;;;;;10.33;5.63;;;21.70;99.90;;;;;;5070771;28;20445;-63
2021/07/27 04:50:48;;;;;;;12.20;7.60;;;21.70;99.90;;;;;;5057854;28;20480;-63
2021/07/27 04:53:21;;;;;;;10.90;6.10;;;21.70;99.90;;;;;;5069616;28;20422;-62
2021/07/27 04:55:49;;;;;;;9.60;6.00;;;21.70;99.90;;;;;;5068931;28;20459;-63
2021/07/27 04:58:16;;;;;;;7.23;6.57;;;21.90;99.90;;;;;;5083000;28;20461;-63
2021/07/27 05:00:43;;;;;;;7.50;6.63;;;21.90;99.90;;;;;;5090594;28;20447;-63
2021/07/27 05:03:10;;;;;;;5.80;5.33;;;21.80;99.90;;;;;;5079273;28;20471;-63
2021/07/27 05:05:37;;;;;;;8.57;6.40;;;21.80;99.90;;;;;;5080193;28;20456;-62
2021/07/27 05:08:05;;;;;;;12.03;5.80;;;22.00;99.90;;;;;;5062169;28;20452;-62
2021/07/27 05:10:32;;;;;;;8.03;6.40;;;22.00;99.90;;;;;;5072122;28;20693;-64
2021/07/27 05:12:59;;;;;;;8.53;6.63;;;21.90;99.90;;;;;;5087053;28;20477;-63
2021/07/27 05:15:26;;;;;;;6.00;4.57;;;22.00;99.90;;;;;;5073019;28;20433;-63
2021/07/27 05:18:00;;;;;;;7.47;6.73;;;22.00;99.90;;;;;;5077846;28;20483;-65
2021/07/27 05:20:27;;;;;;;8.60;5.70;;;22.00;99.90;;;;;;5075060;28;20831;-64
2021/07/27 05:22:55;;;;;;;6.50;5.90;;;22.00;99.90;;;;;;5070948;28;20453;-64
2021/07/27 05:25:22;;;;;;;6.60;5.03;;;21.90;99.90;;;;;;5079638;28;20491;-64
2021/07/27 05:27:49;;;;;;;6.27;5.67;;;21.90;99.90;;;;;;5061932;28;20810;-63
2021/07/27 05:30:16;;;;;;;12.60;5.67;;;22.10;99.90;;;;;;5079634;28;20477;-62
2021/07/27 05:32:44;;;;;;;10.70;6.60;;;22.50;99.90;;;;;;5069833;28;20525;-62
2021/07/27 05:35:11;;;;;;;22.40;7.30;;;22.70;99.90;;;;;;5078848;28;20428;-62
2021/07/27 05:37:38;;;;;;;8.33;6.20;;;22.90;99.90;;;;;;5079994;28;20414;-63
2021/07/27 05:40:06;;;;;;;11.67;5.83;;;23.20;99.90;;;;;;5078436;28;20440;-63
2021/07/27 05:42:33;;;;;;;20.07;6.50;;;23.60;99.90;;;;;;5079051;28;20447;-65
2021/07/27 05:45:00;;;;;;;15.70;8.57;;;24.20;99.90;;;;;;5070352;28;20444;-63
2021/07/27 05:47:27;;;;;;;13.70;7.00;;;24.40;99.90;;;;;;5077022;28;20653;-63
2021/07/27 05:49:55;;;;;;;9.70;6.90;;;24.60;99.90;;;;;;5078648;28;20493;-64
2021/07/27 05:52:22;;;;;;;7.47;6.30;;;24.70;99.90;;;;;;5078216;28;20482;-64
2021/07/27 05:54:51;;;;;;;7.90;5.87;;;24.60;99.90;;;;;;5067532;28;20418;-63
2021/07/27 05:57:18;;;;;;;12.17;6.10;;;24.50;99.90;;;;;;5078565;28;20726;-64
2021/07/27 05:59:45;;;;;;;6.17;5.67;;;24.30;99.90;;;;;;5078717;28;20436;-63
2021/07/27 06:02:12;;;;;;;5.90;5.40;;;24.40;99.90;;;;;;5078422;28;20451;-62
2021/07/27 06:04:39;;;;;;;7.30;5.83;;;24.30;99.90;;;;;;5061024;28;20440;-64
2021/07/27 06:07:06;;;;;;;7.93;7.07;;;24.00;99.90;;;;;;5070512;28;20452;-62
2021/07/27 06:09:33;;;;;;;8.70;6.50;;;23.80;99.90;;;;;;5086805;28;20494;-63
2021/07/27 06:12:10;;;;;;;11.13;7.57;;;23.90;99.90;;;;;;5064598;28;20562;-63
2021/07/27 06:14:37;;;;;;;9.87;7.20;;;24.10;99.90;;;;;;5034770;28;20437;-63
2021/07/27 06:17:12;;;;;;;8.90;6.43;;;24.40;99.90;;;;;;5033763;28;20775;-63
2021/07/27 06:19:40;;;;;;;7.13;5.53;;;24.40;99.90;;;;;;5034281;28;20461;-63
2021/07/27 06:22:07;;;;;;;7.33;6.00;;;24.40;99.90;;;;;;5034970;28;20634;-63
2021/07/27 06:24:34;;;;;;;6.43;5.50;;;24.80;99.90;;;;;;5034605;28;20442;-62
2021/07/27 06:27:01;;;;;;;8.57;6.37;;;24.90;99.90;;;;;;5033783;28;20439;-63
2021/07/27 06:29:28;;;;;;;7.73;6.60;;;25.20;99.90;;;;;;5034508;28;20430;-64
2021/07/27 06:31:55;;;;;;;7.90;5.83;;;25.60;99.90;;;;;;5034669;28;20479;-63
2021/07/27 06:34:22;;;;;;;14.90;7.60;;;26.00;99.90;;;;;;5046528;28;20591;-63
2021/07/27 06:36:49;;;;;;;7.70;6.23;;;26.50;99.90;;;;;;5034980;28;20438;-63
2021/07/27 06:39:17;;;;;;;9.03;8.23;;;26.70;99.90;;;;;;5046436;28;20434;-63
2021/07/27 06:41:44;;;;;;;7.50;6.80;;;27.00;99.90;;;;;;5034460;28;20414;-63
2021/07/27 06:44:11;;;;;;;7.77;7.00;;;27.40;99.90;;;;;;5048393;28;20435;-63
2021/07/27 06:46:38;;;;;;;6.73;6.20;;;27.60;99.90;;;;;;5043737;28;20436;-62
2021/07/27 06:49:05;;;;;;;7.00;6.40;;;27.90;99.90;;;;;;5035007;28;20430;-63
2021/07/27 06:51:32;;;;;;;7.20;6.70;;;28.30;99.90;;;;;;5042925;28;20528;-63
2021/07/27 06:53:59;;;;;;;9.77;6.90;;;28.80;99.90;;;;;;5025926;28;20633;-62
2021/07/27 06:56:26;;;;;;;8.60;8.10;;;29.40;99.70;;;;;;5032316;28;20442;-63
2021/07/27 06:58:53;;;;;;;8.70;8.20;;;30.30;96.50;;;;;;5016432;28;20976;-61
2021/07/27 07:01:20;;;;;;;8.13;7.70;;;31.70;94.40;;;;;;5015908;28;20501;-62
2021/07/27 07:03:48;;;;;;;9.40;8.60;;;33.70;91.30;;;;;;5025234;28;20719;-61
2021/07/27 07:06:16;;;;;;;10.43;9.63;;;34.80;86.70;;;;;;5034166;28;20442;-62
2021/07/27 07:08:43;;;;;;;10.07;9.40;;;36.80;80.40;;;;;;5033839;28;20430;-63
2021/07/27 07:11:10;;;;;;;10.80;10.20;;;36.70;78.30;;;;;;5044134;28;20515;-63
2021/07/27 07:13:38;;;;;;;10.00;9.50;;;37.30;73.80;;;;;;5045789;28;20430;-63
2021/07/27 07:16:09;;;;;;;10.87;10.00;;;38.60;70.60;;;;;;5034388;28;20440;-63
2021/07/27 07:18:37;;;;;;;11.03;10.30;;;40.20;64.30;;;;;;5030921;28;20435;-62
2021/07/27 07:21:05;;;;;;;10.50;10.07;;;39.30;63.70;;;;;;5033954;28;20955;-63
2021/07/27 07:23:33;;;;;;;11.63;10.93;;;40.70;59.70;;;;;;5020206;28;20446;-62
2021/07/27 07:26:04;;;;;;;11.17;10.70;;;42.10;56.90;;;;;;5021066;28;20434;-62
2021/07/27 07:28:31;;;;;;;11.87;11.27;;;43.60;53.50;;;;;;5024322;28;20438;-63
2021/07/27 07:30:58;;;;;;;12.10;11.53;;;43.80;52.00;;;;;;5019605;28;20474;-62
2021/07/27 07:33:25;;;;;;;12.67;11.97;;;43.60;51.80;;;;;;5020304;28;20477;-62
2021/07/27 07:35:52;;;;;;;10.90;10.50;;;43.50;52.00;;;;;;5024588;28;20435;-62
2021/07/27 07:38:19;;;;;;;10.10;9.70;;;43.20;50.80;;;;;;5019332;28;20443;-64
2021/07/27 07:40:46;;;;;;;11.70;11.10;;;42.90;50.70;;;;;;5024409;28;20442;-63
2021/07/27 07:43:13;;;;;;;13.83;13.03;;;42.10;51.70;;;;;;5023047;28;20808;-62
2021/07/27 07:45:40;;;;;;;12.23;11.63;;;42.90;51.50;;;;;;5023365;28;20645;-63
2021/07/27 07:48:07;;;;;;;12.33;11.77;;;43.00;50.50;;;;;;5023760;28;20438;-64
2021/07/27 07:50:35;;;;;;;12.57;12.07;;;42.80;50.70;;;;;;5025442;28;20478;-63
2021/07/27 07:53:04;;;;;;;12.37;11.70;;;40.80;53.40;;;;;;5023553;28;20445;-63
2021/07/27 07:55:31;;;;;;;11.57;10.80;;;39.10;55.80;;;;;;5025492;28;20472;-63
2021/07/27 07:57:59;;;;;;;11.70;11.20;;;37.50;58.30;;;;;;5007323;28;20448;-63
2021/07/27 08:00:26;;;;;;;11.50;11.00;;;36.80;59.60;;;;;;5026826;28;20443;-63
2021/07/27 08:02:53;;;;;;;11.00;10.40;;;36.80;60.20;;;;;;5014041;28;20493;-62
2021/07/27 08:05:21;;;;;;;11.53;10.70;;;38.70;57.30;;;;;;5020356;28;20477;-63
2021/07/27 08:07:49;;;;;;;12.80;11.70;;;39.30;56.30;;;;;;5020319;28;20438;-63
2021/07/27 08:10:16;;;;;;;11.80;10.80;;;39.10;56.70;;;;;;5003757;28;20462;-63
2021/07/27 08:12:46;;;;;;;11.80;11.20;;;39.60;55.90;;;;;;5019413;28;20438;-62
2021/07/27 08:15:15;;;;;;;12.27;11.67;;;39.80;55.30;;;;;;5020167;28;20942;-63
2021/07/27 08:17:42;;;;;;;11.90;11.20;;;41.00;53.90;;;;;;5020208;28;20446;-64
2021/07/27 08:20:11;;;;;;;11.53;11.00;;;40.70;54.40;;;;;;5034576;28;20504;-64
2021/07/27 08:22:39;;;;;;;12.47;11.87;;;39.70;55.40;;;;;;5018825;28;20440;-63
2021/07/27 08:25:08;;;;;;;13.53;12.63;;;39.40;56.00;;;;;;5018147;28;20438;-63
2021/07/27 08:27:35;;;;;;;11.10;10.60;;;40.30;55.10;;;;;;5018544;28;20438;-65
2021/07/27 08:30:02;;;;;;;11.03;10.33;;;40.30;54.30;;;;;;5019092;28;20470;-63
2021/07/27 08:32:30;;;;;;;11.30;10.70;;;39.40;55.90;;;;;;5019126;28;20478;-64
2021/07/27 08:34:58;;;;;;;11.37;10.43;;;39.40;55.60;;;;;;5015927;28;20481;-64
2021/07/27 08:37:27;;;;;;;11.57;10.70;;;40.50;53.90;;;;;;5019293;28;20484;-63
2021/07/27 08:39:59;;;;;;;12.10;11.40;;;40.90;52.10;;;;;;5019347;28;20757;-64
2021/07/27 08:42:29;;;;;;;11.17;10.67;;;40.20;53.40;;;;;;5019471;28;20545;-63
2021/07/27 08:45:03;;;;;;;11.07;10.37;;;39.80;54.20;;;;;;5019958;28;20470;-64
2021/07/27 08:47:32;;;;;;;12.23;11.63;;;40.00;53.10;;;;;;5020711;28;20491;-64
2021/07/27 08:50:05;;;;;;;11.37;10.43;;;39.80;53.60;;;;;;5019647;28;20753;-63
2021/07/27 08:52:32;;;;;;;12.07;11.57;;;39.80;53.20;;;;;;5019483;28;20479;-63
2021/07/27 08:54:59;;;;;;;15.47;11.47;;;40.10;52.30;;;;;;5019254;28;20671;-64
2021/07/27 08:57:26;;;;;;;10.83;10.13;;;40.30;51.50;;;;;;5011325;28;20463;-64
2021/07/27 08:59:54;;;;;;;10.43;9.93;;;41.00;50.80;;;;;;5015993;28;20450;-63
2021/07/27 09:02:29;;;;;;;11.67;10.90;;;41.10;50.70;;;;;;5018424;28;20450;-64
2021/07/27 09:05:12;;;;;;;10.50;10.00;;;41.70;49.50;;;;;;5016798;28;20442;-64
2021/07/27 09:07:40;;;;;;;9.50;9.00;;;41.30;50.10;;;;;;4999769;28;20808;-64
2021/07/27 09:10:21;;;;;;;10.47;9.97;;;41.50;49.20;;;;;;4999224;28;20758;-64
2021/07/27 09:13:06;;;;;;;10.60;10.00;;;42.10;49.30;;;;;;5010272;28;20482;-64
2021/07/27 09:15:39;;;;;;;10.37;9.93;;;42.50;48.60;;;;;;5019419;28;20795;-64
2021/07/27 09:18:09;;;;;;;10.57;9.97;;;42.00;48.70;;;;;;5019012;28;20784;-64
2021/07/27 09:20:41;;;;;;;10.23;9.70;;;41.60;49.00;;;;;;5018895;28;20672;-64
2021/07/27 09:23:17;;;;;;;10.70;10.10;;;41.60;48.40;;;;;;5018747;28;20434;-64
2021/07/27 09:26:06;;;;;;;10.70;10.10;;;41.20;48.90;;;;;;5021964;28;20429;-63
2021/07/27 09:28:33;;;;;;;9.53;9.03;;;40.60;49.70;;;;;;5036334;28;20430;-64
2021/07/27 09:31:01;;;;;;;10.50;9.90;;;39.80;50.90;;;;;;5025837;28;20495;-64
2021/07/27 09:33:30;;;;;;;10.90;10.30;;;39.80;50.80;;;;;;5023443;28;20444;-64
2021/07/27 09:35:58;;;;;;;10.10;9.30;;;40.30;49.80;;;;;;5034888;28;20438;-63
2021/07/27 09:38:32;;;;;;;10.90;10.07;;;40.10;50.40;;;;;;5026901;28;20439;-63
2021/07/27 09:41:07;;;;;;;10.57;9.97;;;39.10;51.50;;;;;;5034115;28;20477;-64
2021/07/27 09:43:44;;;;;;;10.03;9.53;;;37.50;53.70;;;;;;5037013;28;20624;-63
2021/07/27 09:46:11;;;;;;;11.10;10.03;;;35.80;55.80;;;;;;5030392;28;20435;-64
2021/07/27 09:48:41;;;;;;;10.27;9.67;;;34.70;58.50;;;;;;5018897;28;20441;-63
2021/07/27 09:51:10;;;;;;;15.10;9.53;;;34.20;59.10;;;;;;5033524;28;20731;-64
2021/07/27 09:53:39;;;;;;;9.40;8.87;;;34.20;59.80;;;;;;5037023;28;20679;-63
2021/07/27 09:56:10;;;;;;;9.70;9.10;;;34.00;60.80;;;;;;5034647;28;20926;-63
2021/07/27 09:58:38;;;;;;;9.90;9.20;;;33.80;60.70;;;;;;5004911;28;20520;-63
2021/07/27 10:01:20;;;;;;;9.50;8.67;;;33.50;61.50;;;;;;5018254;28;20443;-64
2021/07/27 10:03:59;;;;;;;9.40;8.80;;;33.40;63.80;;;;;;5025753;28;20471;-64
2021/07/27 10:06:44;;;;;;;15.93;9.40;;;33.80;61.60;;;;;;5024047;28;20446;-64
2021/07/27 10:09:23;;;;;;;8.90;8.40;;;34.00;62.30;;;;;;5017932;28;20461;-65
2021/07/27 10:11:51;;;;;;;9.50;9.00;;;33.80;61.40;;;;;;5015311;28;20717;-65
2021/07/27 10:14:19;;;;;;;9.23;8.73;;;33.60;61.60;;;;;;5008051;28;20446;-64
2021/07/27 10:16:48;;;;;;;9.27;8.40;;;33.30;63.00;;;;;;5018170;28;20749;-64
2021/07/27 10:19:22;;;;;;;9.33;8.73;;;33.30;62.70;;;;;;5018227;28;20462;-63
2021/07/27 10:22:05;;;;;;;8.93;8.40;;;33.30;61.70;;;;;;5015989;28;20454;-64
2021/07/27 10:24:58;;;;;;;8.83;8.13;;;33.20;63.10;;;;;;5018733;28;20480;-63
2021/07/27 10:27:25;;;;;;;9.70;9.00;;;32.80;63.40;;;;;;5018703;28;20442;-63
2021/07/27 10:30:07;;;;;;;8.53;8.03;;;32.70;63.40;;;;;;5018212;28;20446;-63
2021/07/27 10:32:34;;;;;;;8.33;7.93;;;33.30;64.00;;;;;;5005672;28;20843;-64
2021/07/27 10:35:28;;;;;;;9.00;8.50;;;33.10;63.40;;;;;;5012109;28;20450;-63
2021/07/27 10:38:08;;;;;;;8.83;8.13;;;32.80;64.20;;;;;;5011685;28;20436;-63
2021/07/27 10:40:39;;;;;;;7.90;7.50;;;33.10;62.60;;;;;;5005900;28;20431;-64
2021/07/27 10:43:07;;;;;;;8.00;7.60;;;33.10;60.60;;;;;;5017348;28;20445;-63
2021/07/27 10:45:35;;;;;;;8.97;8.47;;;33.40;61.40;;;;;;5015465;28;20441;-63
2021/07/27 10:48:03;;;;;;;10.27;9.57;;;33.50;60.10;;;;;;5015904;28;20618;-63
2021/07/27 10:50:32;;;;;;;8.40;8.00;;;33.30;60.90;;;;;;5012984;28;20442;-63
2021/07/27 10:53:12;;;;;;;8.87;8.47;;;33.30;59.70;;;;;;5025197;28;20537;-64
2021/07/27 10:55:45;;;;;;;8.33;7.93;;;33.00;60.70;;;;;;5029716;28;20468;-63
2021/07/27 10:58:16;;;;;;;8.23;7.83;;;32.90;62.30;;;;;;5019975;28;20509;-63
2021/07/27 11:00:43;;;;;;;10.20;9.70;;;33.20;62.10;;;;;;5021566;28;20479;-64
2021/07/27 11:03:11;;;;;;;9.40;8.90;;;33.50;62.20;;;;;;5034862;28;20464;-64
2021/07/27 11:05:38;;;;;;;9.93;9.43;;;33.90;61.10;;;;;;5022035;28;20434;-64
2021/07/27 11:08:05;;;;;;;9.40;9.00;;;33.90;59.50;;;;;;5008129;28;20439;-64
2021/07/27 11:10:33;;;;;;;9.90;9.30;;;34.00;60.20;;;;;;5000936;28;20471;-64
2021/07/27 11:13:00;;;;;;;9.03;8.53;;;33.60;60.20;;;;;;5021210;28;20506;-63
2021/07/27 11:15:29;;;;;;;9.23;8.63;;;33.50;61.90;;;;;;5019860;28;20534;-63
2021/07/27 11:18:03;;;;;;;8.60;8.10;;;33.60;60.90;;;;;;5020019;28;20443;-64
2021/07/27 11:20:36;;;;;;;9.20;8.70;;;33.30;62.60;;;;;;5021177;28;20469;-63
2021/07/27 11:23:12;;;;;;;9.23;8.63;;;33.10;62.90;;;;;;5019119;28;20481;-63
2021/07/27 11:25:40;;;;;;;8.67;8.20;;;33.30;63.10;;;;;;5020192;28;20433;-63
2021/07/27 11:28:11;;;;;;;9.10;8.50;;;33.40;62.20;;;;;;5012239;28;20490;-64
2021/07/27 11:30:41;;;;;;;10.43;9.47;;;33.40;62.50;;;;;;5025435;28;20434;-63
2021/07/27 11:33:11;;;;;;;7.73;7.37;;;33.40;62.00;;;;;;5029938;28;20552;-64
2021/07/27 11:35:44;;;;;;;8.20;7.60;;;33.40;62.00;;;;;;5020123;28;20525;-64
2021/07/27 11:38:25;;;;;;;8.30;7.80;;;33.20;62.90;;;;;;5029503;28;20433;-64
2021/07/27 11:41:06;;;;;;;8.80;8.40;;;33.30;60.90;;;;;;5035017;28;20434;-64
2021/07/27 11:43:35;;;;;;;8.67;8.07;;;33.30;61.60;;;;;;5037997;28;20441;-63
2021/07/27 11:46:06;;;;;;;9.20;8.60;;;33.20;61.60;;;;;;5015291;28;20507;-64
2021/07/27 11:48:34;;;;;;;8.20;7.80;;;33.40;62.70;;;;;;5024962;28;20434;-63
2021/07/27 11:51:02;;;;;;;7.90;7.60;;;33.80;62.70;;;;;;5036145;28;20501;-64
2021/07/27 11:53:32;;;;;;;8.87;8.37;;;33.90;61.80;;;;;;5036918;28;20815;-63
2021/07/27 11:56:14;;;;;;;10.47;9.47;;;33.70;61.20;;;;;;5031786;28;20443;-63
2021/07/27 11:58:42;;;;;;;7.87;7.47;;;33.40;62.70;;;;;;5000819;28;20486;-63
2021/07/27 12:01:09;;;;;;;8.27;7.90;;;33.20;62.40;;;;;;5000469;28;21022;-63
2021/07/27 12:03:36;;;;;;;8.63;8.13;;;33.10;62.80;;;;;;5005399;28;20519;-65
2021/07/27 12:06:11;;;;;;;10.37;9.73;;;33.00;61.80;;;;;;5019949;28;20445;-64
2021/07/27 12:08:38;;;;;;;7.87;7.40;;;33.10;62.50;;;;;;5019983;28;20430;-64
2021/07/27 12:11:07;;;;;;;8.70;8.07;;;33.30;62.40;;;;;;5019904;28;20474;-63
2021/07/27 12:13:34;;;;;;;9.40;9.00;;;33.30;60.40;;;;;;5018616;28;20482;-64
2021/07/27 12:16:01;;;;;;;18.23;9.10;;;33.00;61.40;;;;;;5020462;28;20446;-63
2021/07/27 12:18:28;;;;;;;8.47;7.97;;;33.00;61.90;;;;;;5017863;28;20444;-64
2021/07/27 12:20:55;;;;;;;8.93;8.43;;;32.80;62.60;;;;;;5020060;28;20439;-64
2021/07/27 12:23:22;;;;;;;8.23;7.83;;;32.60;62.20;;;;;;5017507;28;20443;-64
2021/07/27 12:26:03;;;;;;;8.77;7.90;;;32.30;63.10;;;;;;5009170;28;20469;-63
2021/07/27 12:28:30;;;;;;;8.50;8.10;;;31.90;64.80;;;;;;5018768;28;20442;-65
2021/07/27 12:30:57;;;;;;;8.97;8.13;;;32.00;64.90;;;;;;5020017;28;20497;-64
2021/07/27 12:33:24;;;;;;;9.30;8.80;;;32.00;65.20;;;;;;5019579;28;20474;-64
2021/07/27 12:35:51;;;;;;;8.97;8.47;;;31.90;65.60;;;;;;5020332;28;20495;-64
2021/07/27 12:38:21;;;;;;;9.33;8.53;;;31.90;66.00;;;;;;5018279;28;20452;-63
2021/07/27 12:40:48;;;;;;;9.03;8.33;;;32.10;65.30;;;;;;5016916;28;20438;-63
2021/07/27 12:43:15;;;;;;;9.03;8.33;;;32.20;65.00;;;;;;5021706;28;20446;-64
2021/07/27 12:45:43;;;;;;;8.37;7.67;;;32.50;62.80;;;;;;5022847;28;20430;-63
2021/07/27 12:48:11;;;;;;;8.90;8.37;;;32.30;62.60;;;;;;5017310;28;20444;-63
2021/07/27 12:50:38;;;;;;;8.90;8.27;;;32.10;62.50;;;;;;5019558;28;20869;-63
2021/07/27 12:53:05;;;;;;;9.30;8.87;;;32.20;64.40;;;;;;5019395;28;20478;-63
2021/07/27 12:55:33;;;;;;;9.20;8.70;;;32.30;63.80;;;;;;5017355;28;20438;-65
2021/07/27 12:58:01;;;;;;;9.10;8.47;;;32.70;62.50;;;;;;5019358;28;20441;-64
2021/07/27 13:00:28;;;;;;;8.57;8.17;;;32.90;60.50;;;;;;5019527;28;20446;-64
2021/07/27 13:02:55;;;;;;;8.40;8.00;;;33.10;59.40;;;;;;5019449;28;20485;-64
2021/07/27 13:05:22;;;;;;;10.30;9.60;;;33.10;60.60;;;;;;5005593;28;20525;-64